sensor_id;sensor_type;location;lat;lon;timestamp;temperature;humidity
12130;DHT22;6128;59.340;18.040;2023-05-15T00:00:18;14.20;56.90
12130;DHT22;6128;59.340;18.040;2023-05-15T00:02:45;14.20;57.00
12130;DHT22;6128;59.340;18.040;2023-05-15T00:05:13;14.20;57.20
12130;DHT22;6128;59.340;18.040;2023-05-15T00:07:40;14.10;57.20
12130;DHT22;6128;59.340;18.040;2023-05-15T00:10:08;14.10;57.30
12130;DHT22;6128;59.340;18.040;2023-05-15T00:12:36;14.10;57.40
12130;DHT22;6128;59.340;18.040;2023-05-15T00:15:04;14.10;57.50
12130;DHT22;6128;59.340;18.040;2023-05-15T00:17:31;14.10;57.60
12130;DHT22;6128;59.340;18.040;2023-05-15T00:19:58;14.10;57.70
12130;DHT22;6128;59.340;18.040;2023-05-15T00:22:25;14.10;57.80
12130;DHT22;6128;59.340;18.040;2023-05-15T00:24:53;14.10;57.80
12130;DHT22;6128;59.340;18.040;2023-05-15T00:27:20;14.10;57.90
12130;DHT22;6128;59.340;18.040;2023-05-15T00:29:48;14.10;58.00
12130;DHT22;6128;59.340;18.040;2023-05-15T00:32:15;14.00;58.00
12130;DHT22;6128;59.340;18.040;2023-05-15T00:34:42;14.10;58.00
12130;DHT22;6128;59.340;18.040;2023-05-15T00:37:10;14.00;58.10
12130;DHT22;6128;59.340;18.040;2023-05-15T00:39:37;14.00;58.20
12130;DHT22;6128;59.340;18.040;2023-05-15T00:42:05;14.00;58.30
12130;DHT22;6128;59.340;18.040;2023-05-15T00:44:33;14.00;58.40
12130;DHT22;6128;59.340;18.040;2023-05-15T00:47:02;13.90;58.50
12130;DHT22;6128;59.340;18.040;2023-05-15T00:49:30;13.90;58.50
12130;DHT22;6128;59.340;18.040;2023-05-15T00:52:00;13.90;58.60
12130;DHT22;6128;59.340;18.040;2023-05-15T00:54:28;13.90;58.60
12130;DHT22;6128;59.340;18.040;2023-05-15T00:56:56;13.90;58.70
12130;DHT22;6128;59.340;18.040;2023-05-15T00:59:25;13.90;58.70
12130;DHT22;6128;59.340;18.040;2023-05-15T01:01:53;13.90;58.80
12130;DHT22;6128;59.340;18.040;2023-05-15T01:04:22;13.90;58.80
12130;DHT22;6128;59.340;18.040;2023-05-15T01:06:50;13.90;58.90
12130;DHT22;6128;59.340;18.040;2023-05-15T01:09:18;13.90;59.00
12130;DHT22;6128;59.340;18.040;2023-05-15T01:11:46;13.90;59.10
12130;DHT22;6128;59.340;18.040;2023-05-15T01:14:16;13.90;59.10
12130;DHT22;6128;59.340;18.040;2023-05-15T01:16:43;13.90;59.30
12130;DHT22;6128;59.340;18.040;2023-05-15T01:19:10;13.80;59.40
12130;DHT22;6128;59.340;18.040;2023-05-15T01:22:05;13.80;59.60
12130;DHT22;6128;59.340;18.040;2023-05-15T01:24:58;13.80;59.60
12130;DHT22;6128;59.340;18.040;2023-05-15T01:27:35;13.70;59.70
12130;DHT22;6128;59.340;18.040;2023-05-15T01:30:07;13.70;59.60
12130;DHT22;6128;59.340;18.040;2023-05-15T01:32:40;13.70;59.70
12130;DHT22;6128;59.340;18.040;2023-05-15T01:35:12;13.70;59.80
12130;DHT22;6128;59.340;18.040;2023-05-15T01:37:43;13.70;59.80
12130;DHT22;6128;59.340;18.040;2023-05-15T01:40:11;13.60;59.90
12130;DHT22;6128;59.340;18.040;2023-05-15T01:42:48;13.60;60.00
12130;DHT22;6128;59.340;18.040;2023-05-15T01:45:17;13.60;60.20
12130;DHT22;6128;59.340;18.040;2023-05-15T01:47:47;13.50;60.30
12130;DHT22;6128;59.340;18.040;2023-05-15T01:50:18;13.50;60.30
12130;DHT22;6128;59.340;18.040;2023-05-15T01:52:48;13.50;60.30
12130;DHT22;6128;59.340;18.040;2023-05-15T01:55:18;13.50;60.40
12130;DHT22;6128;59.340;18.040;2023-05-15T01:57:49;13.50;60.40
12130;DHT22;6128;59.340;18.040;2023-05-15T02:00:17;13.50;60.50
12130;DHT22;6128;59.340;18.040;2023-05-15T02:02:45;13.50;60.50
12130;DHT22;6128;59.340;18.040;2023-05-15T02:05:14;13.50;60.70
12130;DHT22;6128;59.340;18.040;2023-05-15T02:07:43;13.50;60.80
12130;DHT22;6128;59.340;18.040;2023-05-15T02:10:11;13.50;60.90
12130;DHT22;6128;59.340;18.040;2023-05-15T02:12:40;13.50;61.00
12130;DHT22;6128;59.340;18.040;2023-05-15T02:15:09;13.40;61.10
12130;DHT22;6128;59.340;18.040;2023-05-15T02:17:37;13.40;61.20
12130;DHT22;6128;59.340;18.040;2023-05-15T02:20:06;13.40;61.30
12130;DHT22;6128;59.340;18.040;2023-05-15T02:22:33;13.40;61.30
12130;DHT22;6128;59.340;18.040;2023-05-15T02:25:00;13.40;61.40
12130;DHT22;6128;59.340;18.040;2023-05-15T02:27:31;13.40;61.40
12130;DHT22;6128;59.340;18.040;2023-05-15T02:30:08;13.40;61.60
12130;DHT22;6128;59.340;18.040;2023-05-15T02:32:45;13.30;61.70
12130;DHT22;6128;59.340;18.040;2023-05-15T02:35:18;13.30;61.80
12130;DHT22;6128;59.340;18.040;2023-05-15T02:37:50;13.40;61.90
12130;DHT22;6128;59.340;18.040;2023-05-15T02:40:18;13.40;62.10
12130;DHT22;6128;59.340;18.040;2023-05-15T02:42:46;13.40;62.30
12130;DHT22;6128;59.340;18.040;2023-05-15T02:45:14;13.40;62.40
12130;DHT22;6128;59.340;18.040;2023-05-15T02:47:43;13.40;62.50
12130;DHT22;6128;59.340;18.040;2023-05-15T02:50:11;13.40;62.70
12130;DHT22;6128;59.340;18.040;2023-05-15T02:52:38;13.40;62.80
12130;DHT22;6128;59.340;18.040;2023-05-15T02:55:06;13.40;62.90
12130;DHT22;6128;59.340;18.040;2023-05-15T02:57:33;13.40;62.90
12130;DHT22;6128;59.340;18.040;2023-05-15T03:00:00;13.40;63.00
12130;DHT22;6128;59.340;18.040;2023-05-15T03:02:29;13.40;63.10
12130;DHT22;6128;59.340;18.040;2023-05-15T03:04:58;13.40;63.30
12130;DHT22;6128;59.340;18.040;2023-05-15T03:07:25;13.40;63.40
12130;DHT22;6128;59.340;18.040;2023-05-15T03:09:52;13.40;63.60
12130;DHT22;6128;59.340;18.040;2023-05-15T03:12:19;13.40;63.80
12130;DHT22;6128;59.340;18.040;2023-05-15T03:14:46;13.40;64.00
12130;DHT22;6128;59.340;18.040;2023-05-15T03:17:13;13.50;64.30
12130;DHT22;6128;59.340;18.040;2023-05-15T03:19:40;13.40;64.50
12130;DHT22;6128;59.340;18.040;2023-05-15T03:22:09;13.50;64.70
12130;DHT22;6128;59.340;18.040;2023-05-15T03:24:36;13.50;64.90
12130;DHT22;6128;59.340;18.040;2023-05-15T03:27:03;13.50;65.00
12130;DHT22;6128;59.340;18.040;2023-05-15T03:29:30;13.50;65.30
12130;DHT22;6128;59.340;18.040;2023-05-15T03:31:58;13.40;65.50
12130;DHT22;6128;59.340;18.040;2023-05-15T03:34:25;13.30;65.90
12130;DHT22;6128;59.340;18.040;2023-05-15T03:36:52;13.30;66.20
12130;DHT22;6128;59.340;18.040;2023-05-15T03:39:20;13.20;66.50
12130;DHT22;6128;59.340;18.040;2023-05-15T03:41:47;13.30;66.80
12130;DHT22;6128;59.340;18.040;2023-05-15T03:44:14;13.30;67.00
12130;DHT22;6128;59.340;18.040;2023-05-15T03:46:41;13.30;67.20
12130;DHT22;6128;59.340;18.040;2023-05-15T03:49:08;13.30;67.20
12130;DHT22;6128;59.340;18.040;2023-05-15T03:51:35;13.30;67.30
12130;DHT22;6128;59.340;18.040;2023-05-15T03:54:03;13.30;67.40
12130;DHT22;6128;59.340;18.040;2023-05-15T03:56:32;13.30;67.60
12130;DHT22;6128;59.340;18.040;2023-05-15T03:58:59;13.30;68.10
12130;DHT22;6128;59.340;18.040;2023-05-15T04:01:26;13.20;68.40
12130;DHT22;6128;59.340;18.040;2023-05-15T04:03:53;13.30;68.60
12130;DHT22;6128;59.340;18.040;2023-05-15T04:06:20;13.30;68.80
12130;DHT22;6128;59.340;18.040;2023-05-15T04:08:48;13.20;69.20
12130;DHT22;6128;59.340;18.040;2023-05-15T04:11:15;13.20;69.70
12130;DHT22;6128;59.340;18.040;2023-05-15T04:13:44;13.20;70.30
12130;DHT22;6128;59.340;18.040;2023-05-15T04:16:11;13.20;70.80
12130;DHT22;6128;59.340;18.040;2023-05-15T04:18:38;13.30;71.00
12130;DHT22;6128;59.340;18.040;2023-05-15T04:21:05;13.40;71.20
12130;DHT22;6128;59.340;18.040;2023-05-15T04:23:33;13.40;71.10
12130;DHT22;6128;59.340;18.040;2023-05-15T04:26:00;13.40;71.40
12130;DHT22;6128;59.340;18.040;2023-05-15T04:28:27;13.50;71.20
12130;DHT22;6128;59.340;18.040;2023-05-15T04:30:55;13.50;71.30
12130;DHT22;6128;59.340;18.040;2023-05-15T04:33:23;13.50;71.60
12130;DHT22;6128;59.340;18.040;2023-05-15T04:35:51;13.60;71.70
12130;DHT22;6128;59.340;18.040;2023-05-15T04:38:18;13.60;72.10
12130;DHT22;6128;59.340;18.040;2023-05-15T04:40:45;13.60;72.20
12130;DHT22;6128;59.340;18.040;2023-05-15T04:43:12;13.70;72.60
12130;DHT22;6128;59.340;18.040;2023-05-15T04:45:40;13.80;72.80
12130;DHT22;6128;59.340;18.040;2023-05-15T04:48:08;13.90;73.00
12130;DHT22;6128;59.340;18.040;2023-05-15T04:50:35;13.90;73.10
12130;DHT22;6128;59.340;18.040;2023-05-15T04:53:03;14.00;73.20
12130;DHT22;6128;59.340;18.040;2023-05-15T04:55:30;14.00;73.30
12130;DHT22;6128;59.340;18.040;2023-05-15T04:57:57;13.90;73.40
12130;DHT22;6128;59.340;18.040;2023-05-15T05:00:24;13.90;73.60
12130;DHT22;6128;59.340;18.040;2023-05-15T05:02:51;13.90;73.80
12130;DHT22;6128;59.340;18.040;2023-05-15T05:05:20;13.90;74.10
12130;DHT22;6128;59.340;18.040;2023-05-15T05:07:47;13.80;74.20
12130;DHT22;6128;59.340;18.040;2023-05-15T05:10:16;13.70;74.50
12130;DHT22;6128;59.340;18.040;2023-05-15T05:12:43;13.80;74.70
12130;DHT22;6128;59.340;18.040;2023-05-15T05:15:10;13.80;74.60
12130;DHT22;6128;59.340;18.040;2023-05-15T05:17:38;13.70;74.80
12130;DHT22;6128;59.340;18.040;2023-05-15T05:20:06;13.70;74.80
12130;DHT22;6128;59.340;18.040;2023-05-15T05:22:37;13.80;75.10
12130;DHT22;6128;59.340;18.040;2023-05-15T05:25:05;13.90;75.10
12130;DHT22;6128;59.340;18.040;2023-05-15T05:27:33;13.90;75.40
12130;DHT22;6128;59.340;18.040;2023-05-15T05:30:00;14.00;75.70
12130;DHT22;6128;59.340;18.040;2023-05-15T05:32:27;14.10;75.90
12130;DHT22;6128;59.340;18.040;2023-05-15T05:35:02;14.20;76.10
12130;DHT22;6128;59.340;18.040;2023-05-15T05:37:29;14.30;76.10
12130;DHT22;6128;59.340;18.040;2023-05-15T05:39:58;14.40;76.10
12130;DHT22;6128;59.340;18.040;2023-05-15T05:42:25;14.50;76.20
12130;DHT22;6128;59.340;18.040;2023-05-15T05:44:52;14.50;76.20
12130;DHT22;6128;59.340;18.040;2023-05-15T05:47:19;14.60;76.00
12130;DHT22;6128;59.340;18.040;2023-05-15T05:49:46;14.70;76.10
12130;DHT22;6128;59.340;18.040;2023-05-15T05:52:14;14.80;76.20
12130;DHT22;6128;59.340;18.040;2023-05-15T05:54:41;14.90;76.20
12130;DHT22;6128;59.340;18.040;2023-05-15T05:57:12;15.10;76.20
12130;DHT22;6128;59.340;18.040;2023-05-15T05:59:39;15.20;76.20
12130;DHT22;6128;59.340;18.040;2023-05-15T06:02:07;15.40;76.40
12130;DHT22;6128;59.340;18.040;2023-05-15T06:04:34;15.50;76.20
12130;DHT22;6128;59.340;18.040;2023-05-15T06:07:02;15.70;76.30
12130;DHT22;6128;59.340;18.040;2023-05-15T06:09:29;16.00;76.20
12130;DHT22;6128;59.340;18.040;2023-05-15T06:11:56;16.40;76.10
12130;DHT22;6128;59.340;18.040;2023-05-15T06:14:24;16.70;76.00
12130;DHT22;6128;59.340;18.040;2023-05-15T06:16:52;17.00;75.90
12130;DHT22;6128;59.340;18.040;2023-05-15T06:19:19;17.20;75.80
12130;DHT22;6128;59.340;18.040;2023-05-15T06:21:46;17.20;75.70
12130;DHT22;6128;59.340;18.040;2023-05-15T06:24:13;17.20;75.50
12130;DHT22;6128;59.340;18.040;2023-05-15T06:26:40;17.20;75.40
12130;DHT22;6128;59.340;18.040;2023-05-15T06:29:08;17.10;75.30
12130;DHT22;6128;59.340;18.040;2023-05-15T06:31:36;17.20;75.30
12130;DHT22;6128;59.340;18.040;2023-05-15T06:34:03;17.50;75.20
12130;DHT22;6128;59.340;18.040;2023-05-15T06:36:31;17.80;75.20
12130;DHT22;6128;59.340;18.040;2023-05-15T06:38:58;18.00;75.20
12130;DHT22;6128;59.340;18.040;2023-05-15T06:41:25;18.00;75.20
12130;DHT22;6128;59.340;18.040;2023-05-15T06:43:52;18.00;75.10
12130;DHT22;6128;59.340;18.040;2023-05-15T06:46:20;18.00;75.00
12130;DHT22;6128;59.340;18.040;2023-05-15T06:48:49;18.10;74.90
12130;DHT22;6128;59.340;18.040;2023-05-15T06:51:16;18.20;74.80
12130;DHT22;6128;59.340;18.040;2023-05-15T06:53:43;18.40;74.60
12130;DHT22;6128;59.340;18.040;2023-05-15T06:56:10;18.70;74.50
12130;DHT22;6128;59.340;18.040;2023-05-15T06:58:37;19.20;74.40
12130;DHT22;6128;59.340;18.040;2023-05-15T07:01:05;19.50;74.30
12130;DHT22;6128;59.340;18.040;2023-05-15T07:03:32;19.60;74.10
12130;DHT22;6128;59.340;18.040;2023-05-15T07:06:01;19.60;74.00
12130;DHT22;6128;59.340;18.040;2023-05-15T07:08:28;19.40;73.70
12130;DHT22;6128;59.340;18.040;2023-05-15T07:10:55;19.20;73.50
12130;DHT22;6128;59.340;18.040;2023-05-15T07:13:22;18.90;73.20
12130;DHT22;6128;59.340;18.040;2023-05-15T07:15:49;18.70;73.00
12130;DHT22;6128;59.340;18.040;2023-05-15T07:18:17;18.60;72.80
12130;DHT22;6128;59.340;18.040;2023-05-15T07:20:44;18.70;72.70
12130;DHT22;6128;59.340;18.040;2023-05-15T07:23:12;19.00;72.70
12130;DHT22;6128;59.340;18.040;2023-05-15T07:25:39;19.60;72.70
12130;DHT22;6128;59.340;18.040;2023-05-15T07:28:07;20.20;72.80
12130;DHT22;6128;59.340;18.040;2023-05-15T07:30:34;20.20;72.80
12130;DHT22;6128;59.340;18.040;2023-05-15T07:33:01;20.10;72.70
12130;DHT22;6128;59.340;18.040;2023-05-15T07:35:28;20.00;72.60
12130;DHT22;6128;59.340;18.040;2023-05-15T07:37:55;20.00;72.40
12130;DHT22;6128;59.340;18.040;2023-05-15T07:40:23;20.20;72.20
12130;DHT22;6128;59.340;18.040;2023-05-15T07:42:51;20.70;72.00
12130;DHT22;6128;59.340;18.040;2023-05-15T07:45:18;20.90;71.80
12130;DHT22;6128;59.340;18.040;2023-05-15T07:47:47;21.60;71.60
12130;DHT22;6128;59.340;18.040;2023-05-15T07:50:14;22.10;71.50
12130;DHT22;6128;59.340;18.040;2023-05-15T07:52:42;22.60;71.30
12130;DHT22;6128;59.340;18.040;2023-05-15T07:55:09;22.80;71.00
12130;DHT22;6128;59.340;18.040;2023-05-15T07:57:38;23.10;70.80
12130;DHT22;6128;59.340;18.040;2023-05-15T08:00:06;23.00;70.60
12130;DHT22;6128;59.340;18.040;2023-05-15T08:02:38;23.00;70.30
12130;DHT22;6128;59.340;18.040;2023-05-15T08:05:05;23.00;70.00
12130;DHT22;6128;59.340;18.040;2023-05-15T08:07:34;23.00;69.70
12130;DHT22;6128;59.340;18.040;2023-05-15T08:10:01;23.00;69.50
12130;DHT22;6128;59.340;18.040;2023-05-15T08:12:30;23.10;69.30
12130;DHT22;6128;59.340;18.040;2023-05-15T08:14:59;23.40;69.20
12130;DHT22;6128;59.340;18.040;2023-05-15T08:17:26;23.50;69.10
12130;DHT22;6128;59.340;18.040;2023-05-15T08:19:54;23.50;68.80
12130;DHT22;6128;59.340;18.040;2023-05-15T08:22:21;23.20;67.80
12130;DHT22;6128;59.340;18.040;2023-05-15T08:24:48;22.80;66.20
12130;DHT22;6128;59.340;18.040;2023-05-15T08:27:15;22.80;65.90
12130;DHT22;6128;59.340;18.040;2023-05-15T08:29:42;22.70;65.30
12130;DHT22;6128;59.340;18.040;2023-05-15T08:32:11;22.80;64.70
12130;DHT22;6128;59.340;18.040;2023-05-15T08:34:38;22.70;64.30
12130;DHT22;6128;59.340;18.040;2023-05-15T08:37:05;22.80;63.90
12130;DHT22;6128;59.340;18.040;2023-05-15T08:39:32;22.90;63.80
12130;DHT22;6128;59.340;18.040;2023-05-15T08:42:04;22.90;63.50
12130;DHT22;6128;59.340;18.040;2023-05-15T08:44:34;22.80;63.30
12130;DHT22;6128;59.340;18.040;2023-05-15T08:47:01;22.80;63.00
12130;DHT22;6128;59.340;18.040;2023-05-15T08:49:35;22.70;62.60
12130;DHT22;6128;59.340;18.040;2023-05-15T08:52:08;22.60;61.80
12130;DHT22;6128;59.340;18.040;2023-05-15T08:54:35;22.50;61.40
12130;DHT22;6128;59.340;18.040;2023-05-15T08:57:02;22.50;61.10
12130;DHT22;6128;59.340;18.040;2023-05-15T08:59:30;22.50;60.70
12130;DHT22;6128;59.340;18.040;2023-05-15T09:01:58;22.60;60.40
12130;DHT22;6128;59.340;18.040;2023-05-15T09:04:26;22.50;59.90
12130;DHT22;6128;59.340;18.040;2023-05-15T09:06:56;22.60;59.60
12130;DHT22;6128;59.340;18.040;2023-05-15T09:09:26;22.70;59.30
12130;DHT22;6128;59.340;18.040;2023-05-15T09:11:54;22.50;58.80
12130;DHT22;6128;59.340;18.040;2023-05-15T09:14:21;22.40;58.30
12130;DHT22;6128;59.340;18.040;2023-05-15T09:16:48;22.30;58.00
12130;DHT22;6128;59.340;18.040;2023-05-15T09:19:18;22.20;57.70
12130;DHT22;6128;59.340;18.040;2023-05-15T09:21:46;22.10;57.50
12130;DHT22;6128;59.340;18.040;2023-05-15T09:24:20;22.10;57.20
12130;DHT22;6128;59.340;18.040;2023-05-15T09:27:01;22.00;57.00
12130;DHT22;6128;59.340;18.040;2023-05-15T09:29:29;21.90;56.80
12130;DHT22;6128;59.340;18.040;2023-05-15T09:32:03;21.90;56.70
12130;DHT22;6128;59.340;18.040;2023-05-15T09:34:34;21.90;56.60
12130;DHT22;6128;59.340;18.040;2023-05-15T09:37:03;22.00;56.50
12130;DHT22;6128;59.340;18.040;2023-05-15T09:39:32;22.00;56.50
12130;DHT22;6128;59.340;18.040;2023-05-15T09:42:07;22.10;56.60
12130;DHT22;6128;59.340;18.040;2023-05-15T09:44:38;21.90;56.60
12130;DHT22;6128;59.340;18.040;2023-05-15T09:47:07;21.90;56.70
12130;DHT22;6128;59.340;18.040;2023-05-15T09:49:36;22.00;56.80
12130;DHT22;6128;59.340;18.040;2023-05-15T09:52:06;21.90;56.50
12130;DHT22;6128;59.340;18.040;2023-05-15T09:54:36;21.60;56.40
12130;DHT22;6128;59.340;18.040;2023-05-15T09:57:07;21.60;56.40
12130;DHT22;6128;59.340;18.040;2023-05-15T09:59:35;21.60;56.30
12130;DHT22;6128;59.340;18.040;2023-05-15T10:02:02;21.60;56.10
12130;DHT22;6128;59.340;18.040;2023-05-15T10:04:33;21.50;55.90
12130;DHT22;6128;59.340;18.040;2023-05-15T10:07:01;21.70;55.90
12130;DHT22;6128;59.340;18.040;2023-05-15T10:09:29;21.80;55.80
12130;DHT22;6128;59.340;18.040;2023-05-15T10:11:58;21.90;55.50
12130;DHT22;6128;59.340;18.040;2023-05-15T10:14:27;21.90;55.50
12130;DHT22;6128;59.340;18.040;2023-05-15T10:16:56;21.90;55.30
12130;DHT22;6128;59.340;18.040;2023-05-15T10:19:24;21.90;55.40
12130;DHT22;6128;59.340;18.040;2023-05-15T10:21:53;21.90;55.30
12130;DHT22;6128;59.340;18.040;2023-05-15T10:24:22;21.90;55.20
12130;DHT22;6128;59.340;18.040;2023-05-15T10:26:52;21.80;55.20
12130;DHT22;6128;59.340;18.040;2023-05-15T10:29:22;21.70;55.00
12130;DHT22;6128;59.340;18.040;2023-05-15T10:31:51;21.70;54.80
12130;DHT22;6128;59.340;18.040;2023-05-15T10:34:19;21.70;54.70
12130;DHT22;6128;59.340;18.040;2023-05-15T10:36:49;21.80;54.60
12130;DHT22;6128;59.340;18.040;2023-05-15T10:39:16;21.80;54.50
12130;DHT22;6128;59.340;18.040;2023-05-15T10:41:45;21.80;54.50
12130;DHT22;6128;59.340;18.040;2023-05-15T10:44:13;21.80;54.60
12130;DHT22;6128;59.340;18.040;2023-05-15T10:46:43;21.80;54.60
12130;DHT22;6128;59.340;18.040;2023-05-15T10:49:10;21.60;54.60
12130;DHT22;6128;59.340;18.040;2023-05-15T10:51:38;21.60;54.70
12130;DHT22;6128;59.340;18.040;2023-05-15T10:54:05;21.50;54.80
12130;DHT22;6128;59.340;18.040;2023-05-15T10:56:37;21.40;54.80
12130;DHT22;6128;59.340;18.040;2023-05-15T10:59:06;21.40;54.80
12130;DHT22;6128;59.340;18.040;2023-05-15T11:01:34;21.20;54.80
12130;DHT22;6128;59.340;18.040;2023-05-15T11:04:10;21.10;54.80
12130;DHT22;6128;59.340;18.040;2023-05-15T11:06:39;21.00;54.80
12130;DHT22;6128;59.340;18.040;2023-05-15T11:09:35;21.00;54.80
12130;DHT22;6128;59.340;18.040;2023-05-15T11:12:03;20.90;54.70
12130;DHT22;6128;59.340;18.040;2023-05-15T11:14:31;20.80;54.80
12130;DHT22;6128;59.340;18.040;2023-05-15T11:17:00;20.80;54.80
12130;DHT22;6128;59.340;18.040;2023-05-15T11:19:38;20.80;54.70
12130;DHT22;6128;59.340;18.040;2023-05-15T11:22:18;20.90;54.60
12130;DHT22;6128;59.340;18.040;2023-05-15T11:24:50;20.90;54.50
12130;DHT22;6128;59.340;18.040;2023-05-15T11:27:19;21.00;54.50
12130;DHT22;6128;59.340;18.040;2023-05-15T11:30:05;21.00;54.40
12130;DHT22;6128;59.340;18.040;2023-05-15T11:32:49;21.00;54.00
12130;DHT22;6128;59.340;18.040;2023-05-15T11:35:23;21.10;53.90
12130;DHT22;6128;59.340;18.040;2023-05-15T11:37:53;21.20;53.80
12130;DHT22;6128;59.340;18.040;2023-05-15T11:40:23;21.30;53.70
12130;DHT22;6128;59.340;18.040;2023-05-15T11:43:01;21.30;53.50
12130;DHT22;6128;59.340;18.040;2023-05-15T11:45:30;21.20;53.30
12130;DHT22;6128;59.340;18.040;2023-05-15T11:48:00;21.20;53.30
12130;DHT22;6128;59.340;18.040;2023-05-15T11:50:31;21.20;53.20
12130;DHT22;6128;59.340;18.040;2023-05-15T11:53:01;21.30;53.00
12130;DHT22;6128;59.340;18.040;2023-05-15T11:55:30;21.30;52.70
12130;DHT22;6128;59.340;18.040;2023-05-15T11:57:58;21.30;52.60
12130;DHT22;6128;59.340;18.040;2023-05-15T12:00:26;21.30;52.70
12130;DHT22;6128;59.340;18.040;2023-05-15T12:02:53;21.30;52.60
12130;DHT22;6128;59.340;18.040;2023-05-15T12:05:20;21.40;52.60
12130;DHT22;6128;59.340;18.040;2023-05-15T12:07:49;21.30;52.50
12130;DHT22;6128;59.340;18.040;2023-05-15T12:10:17;21.30;52.50
12130;DHT22;6128;59.340;18.040;2023-05-15T12:12:45;21.30;52.50
12130;DHT22;6128;59.340;18.040;2023-05-15T12:15:14;21.30;52.30
12130;DHT22;6128;59.340;18.040;2023-05-15T12:17:42;21.20;52.10
12130;DHT22;6128;59.340;18.040;2023-05-15T12:20:13;21.10;52.00
12130;DHT22;6128;59.340;18.040;2023-05-15T12:22:43;21.10;51.90
12130;DHT22;6128;59.340;18.040;2023-05-15T12:25:13;21.10;51.80
12130;DHT22;6128;59.340;18.040;2023-05-15T12:27:41;21.10;51.70
12130;DHT22;6128;59.340;18.040;2023-05-15T12:30:09;21.00;51.60
12130;DHT22;6128;59.340;18.040;2023-05-15T12:32:38;20.90;51.60
12130;DHT22;6128;59.340;18.040;2023-05-15T12:35:05;21.00;51.70
12130;DHT22;6128;59.340;18.040;2023-05-15T12:37:34;21.30;51.80
12130;DHT22;6128;59.340;18.040;2023-05-15T12:40:03;21.40;51.90
12130;DHT22;6128;59.340;18.040;2023-05-15T12:42:39;21.40;52.00
12130;DHT22;6128;59.340;18.040;2023-05-15T12:45:17;21.40;52.10
12130;DHT22;6128;59.340;18.040;2023-05-15T12:47:46;21.20;52.10
12130;DHT22;6128;59.340;18.040;2023-05-15T12:50:16;21.10;52.20
12130;DHT22;6128;59.340;18.040;2023-05-15T12:52:50;21.20;52.20
12130;DHT22;6128;59.340;18.040;2023-05-15T12:55:21;21.20;52.30
12130;DHT22;6128;59.340;18.040;2023-05-15T12:57:50;21.00;52.20
12130;DHT22;6128;59.340;18.040;2023-05-15T13:00:19;20.90;52.20
12130;DHT22;6128;59.340;18.040;2023-05-15T13:02:49;21.00;52.30
12130;DHT22;6128;59.340;18.040;2023-05-15T13:05:18;20.80;52.20
12130;DHT22;6128;59.340;18.040;2023-05-15T13:07:46;20.70;52.20
12130;DHT22;6128;59.340;18.040;2023-05-15T13:10:14;20.70;52.20
12130;DHT22;6128;59.340;18.040;2023-05-15T13:12:43;20.70;52.20
12130;DHT22;6128;59.340;18.040;2023-05-15T13:15:29;20.50;52.30
12130;DHT22;6128;59.340;18.040;2023-05-15T13:18:00;20.40;52.20
12130;DHT22;6128;59.340;18.040;2023-05-15T13:20:31;20.30;52.30
12130;DHT22;6128;59.340;18.040;2023-05-15T13:22:59;20.40;52.40
12130;DHT22;6128;59.340;18.040;2023-05-15T13:25:27;20.30;52.40
12130;DHT22;6128;59.340;18.040;2023-05-15T13:27:56;20.30;52.40
12130;DHT22;6128;59.340;18.040;2023-05-15T13:30:23;20.30;52.40
12130;DHT22;6128;59.340;18.040;2023-05-15T13:32:52;20.20;52.50
12130;DHT22;6128;59.340;18.040;2023-05-15T13:35:19;20.10;52.50
12130;DHT22;6128;59.340;18.040;2023-05-15T13:37:47;20.00;52.60
12130;DHT22;6128;59.340;18.040;2023-05-15T13:40:14;20.00;52.60
12130;DHT22;6128;59.340;18.040;2023-05-15T13:42:42;19.90;52.70
12130;DHT22;6128;59.340;18.040;2023-05-15T13:45:11;19.80;52.80
12130;DHT22;6128;59.340;18.040;2023-05-15T13:47:39;19.70;52.90
12130;DHT22;6128;59.340;18.040;2023-05-15T13:50:09;19.80;53.00
12130;DHT22;6128;59.340;18.040;2023-05-15T13:52:37;19.90;53.00
12130;DHT22;6128;59.340;18.040;2023-05-15T13:55:05;20.00;53.00
12130;DHT22;6128;59.340;18.040;2023-05-15T13:57:35;20.10;53.00
12130;DHT22;6128;59.340;18.040;2023-05-15T14:00:03;20.20;52.90
12130;DHT22;6128;59.340;18.040;2023-05-15T14:02:32;20.20;52.80
12130;DHT22;6128;59.340;18.040;2023-05-15T14:04:59;20.40;52.80
12130;DHT22;6128;59.340;18.040;2023-05-15T14:07:27;20.50;52.70
12130;DHT22;6128;59.340;18.040;2023-05-15T14:09:55;20.60;52.60
12130;DHT22;6128;59.340;18.040;2023-05-15T14:12:22;20.70;52.50
12130;DHT22;6128;59.340;18.040;2023-05-15T14:14:49;20.70;52.30
12130;DHT22;6128;59.340;18.040;2023-05-15T14:17:16;20.70;52.10
12130;DHT22;6128;59.340;18.040;2023-05-15T14:19:44;20.70;51.90
12130;DHT22;6128;59.340;18.040;2023-05-15T14:22:11;20.60;51.70
12130;DHT22;6128;59.340;18.040;2023-05-15T14:24:39;20.40;51.50
12130;DHT22;6128;59.340;18.040;2023-05-15T14:27:06;20.20;51.40
12130;DHT22;6128;59.340;18.040;2023-05-15T14:29:34;20.10;51.40
12130;DHT22;6128;59.340;18.040;2023-05-15T14:32:01;20.00;51.40
12130;DHT22;6128;59.340;18.040;2023-05-15T14:34:29;20.10;51.40
12130;DHT22;6128;59.340;18.040;2023-05-15T14:36:56;20.10;51.40
12130;DHT22;6128;59.340;18.040;2023-05-15T14:39:23;20.00;51.50
12130;DHT22;6128;59.340;18.040;2023-05-15T14:41:51;20.10;51.50
12130;DHT22;6128;59.340;18.040;2023-05-15T14:44:18;20.10;51.40
12130;DHT22;6128;59.340;18.040;2023-05-15T14:46:46;20.10;51.30
12130;DHT22;6128;59.340;18.040;2023-05-15T14:49:13;20.00;51.10
12130;DHT22;6128;59.340;18.040;2023-05-15T14:51:40;20.10;51.00
12130;DHT22;6128;59.340;18.040;2023-05-15T14:54:07;20.10;50.90
12130;DHT22;6128;59.340;18.040;2023-05-15T14:56:34;20.00;50.80
12130;DHT22;6128;59.340;18.040;2023-05-15T14:59:03;20.00;50.70
12130;DHT22;6128;59.340;18.040;2023-05-15T15:01:30;20.10;50.70
12130;DHT22;6128;59.340;18.040;2023-05-15T15:03:57;20.10;50.80
12130;DHT22;6128;59.340;18.040;2023-05-15T15:06:24;20.10;50.80
12130;DHT22;6128;59.340;18.040;2023-05-15T15:08:51;20.00;50.70
12130;DHT22;6128;59.340;18.040;2023-05-15T15:11:19;20.00;50.50
12130;DHT22;6128;59.340;18.040;2023-05-15T15:13:46;19.90;50.50
12130;DHT22;6128;59.340;18.040;2023-05-15T15:16:14;19.80;50.50
12130;DHT22;6128;59.340;18.040;2023-05-15T15:18:42;19.80;50.50
12130;DHT22;6128;59.340;18.040;2023-05-15T15:21:10;19.80;50.50
12130;DHT22;6128;59.340;18.040;2023-05-15T15:23:37;19.90;50.70
12130;DHT22;6128;59.340;18.040;2023-05-15T15:26:05;19.80;50.90
12130;DHT22;6128;59.340;18.040;2023-05-15T15:28:32;19.80;51.10
12130;DHT22;6128;59.340;18.040;2023-05-15T15:30:59;19.90;51.20
12130;DHT22;6128;59.340;18.040;2023-05-15T15:33:27;19.80;51.20
12130;DHT22;6128;59.340;18.040;2023-05-15T15:35:55;19.80;51.30
12130;DHT22;6128;59.340;18.040;2023-05-15T15:38:22;19.80;51.30